sensor_id;sensor_type;location;lat;lon;timestamp;P1;durP1;ratioP1;P2;durP2;ratioP2
16662;SDS011;8445;51.270;9.434;2023-08-08T00:02:15;12.70;;;11.77;;
16662;SDS011;8445;51.270;9.434;2023-08-08T00:04:41;12.70;;;11.80;;
16662;SDS011;8445;51.270;9.434;2023-08-08T00:07:07;12.38;;;11.50;;
16662;SDS011;8445;51.270;9.434;2023-08-08T00:09:33;14.20;;;11.18;;
16662;SDS011;8445;51.270;9.434;2023-08-08T00:11:59;12.90;;;11.90;;
16662;SDS011;8445;51.270;9.434;2023-08-08T00:14:25;12.75;;;11.85;;
16662;SDS011;8445;51.270;9.434;2023-08-08T00:16:51;12.20;;;11.40;;
16662;SDS011;8445;51.270;9.434;2023-08-08T00:19:17;13.07;;;12.02;;
16662;SDS011;8445;51.270;9.434;2023-08-08T00:21:42;13.43;;;12.18;;
16662;SDS011;8445;51.270;9.434;2023-08-08T00:24:08;13.23;;;12.15;;
16662;SDS011;8445;51.270;9.434;2023-08-08T00:26:34;13.30;;;11.95;;
16662;SDS011;8445;51.270;9.434;2023-08-08T00:29:00;13.68;;;12.40;;
16662;SDS011;8445;51.270;9.434;2023-08-08T00:31:26;13.00;;;12.10;;
16662;SDS011;8445;51.270;9.434;2023-08-08T00:33:52;14.80;;;13.30;;
16662;SDS011;8445;51.270;9.434;2023-08-08T00:36:18;15.85;;;13.98;;
16662;SDS011;8445;51.270;9.434;2023-08-08T00:38:44;15.68;;;14.10;;
16662;SDS011;8445;51.270;9.434;2023-08-08T00:41:09;14.45;;;13.18;;
16662;SDS011;8445;51.270;9.434;2023-08-08T00:43:35;15.05;;;13.52;;
16662;SDS011;8445;51.270;9.434;2023-08-08T00:46:01;15.68;;;14.25;;
16662;SDS011;8445;51.270;9.434;2023-08-08T00:48:27;15.55;;;14.00;;
16662;SDS011;8445;51.270;9.434;2023-08-08T00:50:53;15.63;;;14.13;;
16662;SDS011;8445;51.270;9.434;2023-08-08T00:53:19;15.02;;;13.82;;
16662;SDS011;8445;51.270;9.434;2023-08-08T00:55:47;15.45;;;14.00;;
16662;SDS011;8445;51.270;9.434;2023-08-08T00:58:13;15.30;;;13.98;;
16662;SDS011;8445;51.270;9.434;2023-08-08T01:00:41;14.48;;;13.23;;
16662;SDS011;8445;51.270;9.434;2023-08-08T01:03:07;15.80;;;14.25;;
16662;SDS011;8445;51.270;9.434;2023-08-08T01:05:35;15.98;;;14.50;;
16662;SDS011;8445;51.270;9.434;2023-08-08T01:08:14;16.60;;;14.88;;
16662;SDS011;8445;51.270;9.434;2023-08-08T01:10:47;15.07;;;13.88;;
16662;SDS011;8445;51.270;9.434;2023-08-08T01:13:16;17.75;;;14.23;;
16662;SDS011;8445;51.270;9.434;2023-08-08T01:15:48;15.45;;;13.90;;
16662;SDS011;8445;51.270;9.434;2023-08-08T01:18:15;14.85;;;13.43;;
16662;SDS011;8445;51.270;9.434;2023-08-08T01:20:43;14.65;;;13.43;;
16662;SDS011;8445;51.270;9.434;2023-08-08T01:25:56;15.23;;;13.70;;
16662;SDS011;8445;51.270;9.434;2023-08-08T01:28:25;15.43;;;14.13;;
16662;SDS011;8445;51.270;9.434;2023-08-08T01:30:51;19.40;;;13.43;;
16662;SDS011;8445;51.270;9.434;2023-08-08T01:33:18;19.38;;;13.68;;
16662;SDS011;8445;51.270;9.434;2023-08-08T01:35:46;13.98;;;12.55;;
16662;SDS011;8445;51.270;9.434;2023-08-08T01:38:31;13.77;;;12.48;;
16662;SDS011;8445;51.270;9.434;2023-08-08T01:41:07;14.52;;;13.32;;
16662;SDS011;8445;51.270;9.434;2023-08-08T01:43:34;15.60;;;14.13;;
16662;SDS011;8445;51.270;9.434;2023-08-08T01:46:03;14.40;;;13.10;;
16662;SDS011;8445;51.270;9.434;2023-08-08T01:48:29;15.18;;;13.93;;
16662;SDS011;8445;51.270;9.434;2023-08-08T01:50:56;15.15;;;13.57;;
16662;SDS011;8445;51.270;9.434;2023-08-08T01:53:22;14.85;;;13.73;;
16662;SDS011;8445;51.270;9.434;2023-08-08T01:55:48;16.45;;;13.68;;
16662;SDS011;8445;51.270;9.434;2023-08-08T01:58:16;15.00;;;13.70;;
16662;SDS011;8445;51.270;9.434;2023-08-08T02:00:43;15.15;;;13.75;;
16662;SDS011;8445;51.270;9.434;2023-08-08T02:03:10;15.30;;;13.80;;
16662;SDS011;8445;51.270;9.434;2023-08-08T02:05:36;15.45;;;14.05;;
16662;SDS011;8445;51.270;9.434;2023-08-08T02:08:02;15.32;;;13.75;;
16662;SDS011;8445;51.270;9.434;2023-08-08T02:10:29;16.10;;;14.02;;
16662;SDS011;8445;51.270;9.434;2023-08-08T02:12:55;16.10;;;13.90;;
16662;SDS011;8445;51.270;9.434;2023-08-08T02:15:21;16.17;;;14.77;;
16662;SDS011;8445;51.270;9.434;2023-08-08T02:17:49;14.95;;;13.68;;
16662;SDS011;8445;51.270;9.434;2023-08-08T02:20:16;14.40;;;13.25;;
16662;SDS011;8445;51.270;9.434;2023-08-08T02:22:43;14.52;;;13.10;;
16662;SDS011;8445;51.270;9.434;2023-08-08T02:25:09;15.13;;;13.50;;
16662;SDS011;8445;51.270;9.434;2023-08-08T02:27:35;15.27;;;13.73;;
16662;SDS011;8445;51.270;9.434;2023-08-08T02:30:02;14.00;;;12.90;;
16662;SDS011;8445;51.270;9.434;2023-08-08T02:32:28;13.75;;;12.65;;
16662;SDS011;8445;51.270;9.434;2023-08-08T02:34:54;14.63;;;13.43;;
16662;SDS011;8445;51.270;9.434;2023-08-08T02:37:20;14.65;;;13.32;;
16662;SDS011;8445;51.270;9.434;2023-08-08T02:39:45;14.50;;;12.95;;
16662;SDS011;8445;51.270;9.434;2023-08-08T02:42:14;15.07;;;13.70;;
16662;SDS011;8445;51.270;9.434;2023-08-08T02:44:40;14.13;;;13.02;;
16662;SDS011;8445;51.270;9.434;2023-08-08T02:47:06;14.55;;;13.25;;
16662;SDS011;8445;51.270;9.434;2023-08-08T02:49:31;16.45;;;13.38;;
16662;SDS011;8445;51.270;9.434;2023-08-08T02:51:59;14.75;;;13.15;;
16662;SDS011;8445;51.270;9.434;2023-08-08T02:54:28;14.43;;;12.98;;
16662;SDS011;8445;51.270;9.434;2023-08-08T02:56:54;18.98;;;13.35;;
16662;SDS011;8445;51.270;9.434;2023-08-08T02:59:20;13.57;;;12.40;;
16662;SDS011;8445;51.270;9.434;2023-08-08T03:01:46;13.95;;;12.60;;
16662;SDS011;8445;51.270;9.434;2023-08-08T03:04:16;14.13;;;12.93;;
16662;SDS011;8445;51.270;9.434;2023-08-08T03:06:43;13.10;;;11.90;;
16662;SDS011;8445;51.270;9.434;2023-08-08T03:09:09;12.55;;;11.55;;
16662;SDS011;8445;51.270;9.434;2023-08-08T03:11:37;13.57;;;12.27;;
16662;SDS011;8445;51.270;9.434;2023-08-08T03:14:07;14.23;;;11.98;;
16662;SDS011;8445;51.270;9.434;2023-08-08T03:16:35;12.70;;;11.68;;
16662;SDS011;8445;51.270;9.434;2023-08-08T03:19:02;13.77;;;12.07;;
16662;SDS011;8445;51.270;9.434;2023-08-08T03:21:28;13.50;;;12.15;;
16662;SDS011;8445;51.270;9.434;2023-08-08T03:23:54;13.50;;;12.10;;
16662;SDS011;8445;51.270;9.434;2023-08-08T03:26:20;13.23;;;11.57;;
16662;SDS011;8445;51.270;9.434;2023-08-08T03:28:46;11.23;;;10.38;;
16662;SDS011;8445;51.270;9.434;2023-08-08T03:31:18;12.20;;;11.23;;
16662;SDS011;8445;51.270;9.434;2023-08-08T03:33:46;12.40;;;11.25;;
16662;SDS011;8445;51.270;9.434;2023-08-08T03:36:13;13.70;;;12.20;;
16662;SDS011;8445;51.270;9.434;2023-08-08T03:38:44;13.30;;;11.90;;
16662;SDS011;8445;51.270;9.434;2023-08-08T03:41:12;15.02;;;12.55;;
16662;SDS011;8445;51.270;9.434;2023-08-08T03:43:41;17.05;;;13.18;;
16662;SDS011;8445;51.270;9.434;2023-08-08T03:46:08;14.25;;;12.65;;
16662;SDS011;8445;51.270;9.434;2023-08-08T03:48:34;14.27;;;12.98;;
16662;SDS011;8445;51.270;9.434;2023-08-08T03:51:00;14.10;;;12.63;;
16662;SDS011;8445;51.270;9.434;2023-08-08T03:53:26;14.43;;;13.13;;
16662;SDS011;8445;51.270;9.434;2023-08-08T03:55:53;13.73;;;12.32;;
16662;SDS011;8445;51.270;9.434;2023-08-08T03:58:20;14.27;;;12.88;;
16662;SDS011;8445;51.270;9.434;2023-08-08T04:00:46;14.20;;;12.77;;
16662;SDS011;8445;51.270;9.434;2023-08-08T04:03:15;15.52;;;13.02;;
16662;SDS011;8445;51.270;9.434;2023-08-08T04:05:45;17.27;;;13.00;;
16662;SDS011;8445;51.270;9.434;2023-08-08T04:08:14;15.23;;;12.63;;
16662;SDS011;8445;51.270;9.434;2023-08-08T04:16:56;13.18;;;11.80;;
16662;SDS011;8445;51.270;9.434;2023-08-08T04:19:38;15.18;;;13.75;;
16662;SDS011;8445;51.270;9.434;2023-08-08T04:22:16;14.13;;;12.70;;
16662;SDS011;8445;51.270;9.434;2023-08-08T04:24:53;14.38;;;12.98;;
16662;SDS011;8445;51.270;9.434;2023-08-08T04:28:21;15.57;;;12.80;;
16662;SDS011;8445;51.270;9.434;2023-08-08T04:31:25;15.07;;;12.85;;
16662;SDS011;8445;51.270;9.434;2023-08-08T04:34:50;15.88;;;13.02;;
16662;SDS011;8445;51.270;9.434;2023-08-08T04:40:30;15.82;;;12.40;;
16662;SDS011;8445;51.270;9.434;2023-08-08T04:43:09;14.45;;;13.00;;
16662;SDS011;8445;51.270;9.434;2023-08-08T04:45:40;15.07;;;13.63;;
16662;SDS011;8445;51.270;9.434;2023-08-08T04:49:12;14.75;;;13.05;;
16662;SDS011;8445;51.270;9.434;2023-08-08T04:52:02;13.73;;;12.13;;
16662;SDS011;8445;51.270;9.434;2023-08-08T04:54:56;14.50;;;13.05;;
16662;SDS011;8445;51.270;9.434;2023-08-08T04:58:41;14.13;;;12.93;;
16662;SDS011;8445;51.270;9.434;2023-08-08T05:01:33;13.65;;;12.25;;
16662;SDS011;8445;51.270;9.434;2023-08-08T05:04:18;14.75;;;13.07;;
16662;SDS011;8445;51.270;9.434;2023-08-08T05:06:59;13.88;;;12.68;;
16662;SDS011;8445;51.270;9.434;2023-08-08T05:09:32;14.45;;;12.80;;
16662;SDS011;8445;51.270;9.434;2023-08-08T05:12:15;17.45;;;13.48;;
16662;SDS011;8445;51.270;9.434;2023-08-08T05:15:26;21.85;;;13.23;;
16662;SDS011;8445;51.270;9.434;2023-08-08T05:17:57;13.88;;;12.63;;
16662;SDS011;8445;51.270;9.434;2023-08-08T05:20:54;13.73;;;12.45;;
16662;SDS011;8445;51.270;9.434;2023-08-08T05:23:30;18.33;;;12.80;;
16662;SDS011;8445;51.270;9.434;2023-08-08T05:25:56;14.77;;;13.23;;
16662;SDS011;8445;51.270;9.434;2023-08-08T05:28:23;14.32;;;13.05;;
16662;SDS011;8445;51.270;9.434;2023-08-08T05:31:00;14.55;;;13.15;;
16662;SDS011;8445;51.270;9.434;2023-08-08T05:34:06;13.82;;;12.63;;
16662;SDS011;8445;51.270;9.434;2023-08-08T05:36:50;15.00;;;13.50;;
16662;SDS011;8445;51.270;9.434;2023-08-08T05:39:31;13.85;;;12.48;;
16662;SDS011;8445;51.270;9.434;2023-08-08T05:46:37;13.32;;;11.95;;
16662;SDS011;8445;51.270;9.434;2023-08-08T05:56:16;13.88;;;12.38;;
16662;SDS011;8445;51.270;9.434;2023-08-08T05:58:47;13.13;;;11.88;;
16662;SDS011;8445;51.270;9.434;2023-08-08T06:01:31;13.45;;;12.23;;
16662;SDS011;8445;51.270;9.434;2023-08-08T06:04:01;12.95;;;11.95;;
16662;SDS011;8445;51.270;9.434;2023-08-08T06:06:28;14.00;;;12.63;;
16662;SDS011;8445;51.270;9.434;2023-08-08T06:08:54;14.70;;;11.95;;
16662;SDS011;8445;51.270;9.434;2023-08-08T06:11:23;14.65;;;12.35;;
16662;SDS011;8445;51.270;9.434;2023-08-08T06:13:54;13.68;;;12.32;;
16662;SDS011;8445;51.270;9.434;2023-08-08T06:17:21;12.48;;;11.45;;
16662;SDS011;8445;51.270;9.434;2023-08-08T06:20:08;14.68;;;13.30;;
16662;SDS011;8445;51.270;9.434;2023-08-08T06:22:38;14.15;;;12.27;;
16662;SDS011;8445;51.270;9.434;2023-08-08T06:25:19;12.63;;;11.52;;
16662;SDS011;8445;51.270;9.434;2023-08-08T06:27:57;12.52;;;11.40;;
16662;SDS011;8445;51.270;9.434;2023-08-08T06:30:42;13.75;;;11.57;;
16662;SDS011;8445;51.270;9.434;2023-08-08T06:36:23;11.82;;;10.93;;
16662;SDS011;8445;51.270;9.434;2023-08-08T06:39:19;12.40;;;11.25;;
16662;SDS011;8445;51.270;9.434;2023-08-08T06:42:09;12.45;;;11.20;;
16662;SDS011;8445;51.270;9.434;2023-08-08T06:44:51;12.07;;;10.98;;
16662;SDS011;8445;51.270;9.434;2023-08-08T06:47:35;12.20;;;11.10;;
16662;SDS011;8445;51.270;9.434;2023-08-08T06:50:21;12.57;;;11.32;;
16662;SDS011;8445;51.270;9.434;2023-08-08T06:53:15;13.45;;;11.27;;
16662;SDS011;8445;51.270;9.434;2023-08-08T06:56:21;12.52;;;11.32;;
16662;SDS011;8445;51.270;9.434;2023-08-08T06:59:04;11.25;;;10.32;;
16662;SDS011;8445;51.270;9.434;2023-08-08T07:01:48;12.05;;;9.93;;
16662;SDS011;8445;51.270;9.434;2023-08-08T07:04:31;9.95;;;9.20;;
16662;SDS011;8445;51.270;9.434;2023-08-08T07:07:42;9.95;;;9.25;;
16662;SDS011;8445;51.270;9.434;2023-08-08T07:13:30;9.63;;;8.90;;
16662;SDS011;8445;51.270;9.434;2023-08-08T07:16:34;10.02;;;9.10;;
16662;SDS011;8445;51.270;9.434;2023-08-08T07:19:07;10.18;;;9.25;;
16662;SDS011;8445;51.270;9.434;2023-08-08T07:21:59;9.20;;;8.30;;
16662;SDS011;8445;51.270;9.434;2023-08-08T07:28:00;9.13;;;8.52;;
16662;SDS011;8445;51.270;9.434;2023-08-08T07:30:48;9.32;;;8.63;;
16662;SDS011;8445;51.270;9.434;2023-08-08T07:33:45;10.45;;;9.65;;
16662;SDS011;8445;51.270;9.434;2023-08-08T07:36:39;10.88;;;10.07;;
16662;SDS011;8445;51.270;9.434;2023-08-08T07:39:09;11.13;;;10.25;;
16662;SDS011;8445;51.270;9.434;2023-08-08T07:41:39;10.82;;;9.80;;
16662;SDS011;8445;51.270;9.434;2023-08-08T07:44:30;11.10;;;10.20;;
16662;SDS011;8445;51.270;9.434;2023-08-08T07:47:04;11.13;;;10.35;;
16662;SDS011;8445;51.270;9.434;2023-08-08T07:50:08;10.60;;;9.90;;
16662;SDS011;8445;51.270;9.434;2023-08-08T07:52:50;13.82;;;12.55;;
16662;SDS011;8445;51.270;9.434;2023-08-08T07:58:58;10.98;;;10.05;;
16662;SDS011;8445;51.270;9.434;2023-08-08T08:04:27;10.57;;;9.77;;
16662;SDS011;8445;51.270;9.434;2023-08-08T08:07:12;10.35;;;9.52;;
16662;SDS011;8445;51.270;9.434;2023-08-08T08:09:47;10.32;;;9.63;;
16662;SDS011;8445;51.270;9.434;2023-08-08T08:12:48;9.75;;;9.00;;
16662;SDS011;8445;51.270;9.434;2023-08-08T08:15:35;11.00;;;9.88;;
16662;SDS011;8445;51.270;9.434;2023-08-08T08:18:15;13.50;;;12.27;;
16662;SDS011;8445;51.270;9.434;2023-08-08T08:21:26;13.25;;;12.05;;
16662;SDS011;8445;51.270;9.434;2023-08-08T08:24:14;13.65;;;12.32;;
16662;SDS011;8445;51.270;9.434;2023-08-08T08:26:54;13.75;;;12.45;;
16662;SDS011;8445;51.270;9.434;2023-08-08T08:32:34;11.57;;;10.55;;
16662;SDS011;8445;51.270;9.434;2023-08-08T08:35:50;14.45;;;11.82;;
16662;SDS011;8445;51.270;9.434;2023-08-08T08:38:51;11.13;;;10.23;;
16662;SDS011;8445;51.270;9.434;2023-08-08T08:41:32;12.05;;;11.05;;
16662;SDS011;8445;51.270;9.434;2023-08-08T08:44:31;11.63;;;10.73;;
16662;SDS011;8445;51.270;9.434;2023-08-08T08:47:31;11.77;;;10.82;;
16662;SDS011;8445;51.270;9.434;2023-08-08T08:54:25;11.32;;;10.32;;
16662;SDS011;8445;51.270;9.434;2023-08-08T08:57:28;11.73;;;10.73;;
16662;SDS011;8445;51.270;9.434;2023-08-08T09:00:52;12.18;;;11.02;;
16662;SDS011;8445;51.270;9.434;2023-08-08T09:03:52;12.07;;;10.95;;
16662;SDS011;8445;51.270;9.434;2023-08-08T09:06:35;13.77;;;12.70;;
16662;SDS011;8445;51.270;9.434;2023-08-08T09:09:11;13.32;;;12.40;;
16662;SDS011;8445;51.270;9.434;2023-08-08T09:16:28;13.43;;;12.35;;
16662;SDS011;8445;51.270;9.434;2023-08-08T09:23:01;14.90;;;13.40;;
16662;SDS011;8445;51.270;9.434;2023-08-08T09:25:56;11.05;;;10.25;;
16662;SDS011;8445;51.270;9.434;2023-08-08T09:29:02;10.95;;;10.25;;
16662;SDS011;8445;51.270;9.434;2023-08-08T09:32:34;11.35;;;9.93;;
16662;SDS011;8445;51.270;9.434;2023-08-08T09:35:46;10.00;;;9.30;;
16662;SDS011;8445;51.270;9.434;2023-08-08T09:38:51;10.10;;;9.30;;
16662;SDS011;8445;51.270;9.434;2023-08-08T09:41:49;10.02;;;9.23;;
16662;SDS011;8445;51.270;9.434;2023-08-08T09:47:40;10.00;;;9.10;;
16662;SDS011;8445;51.270;9.434;2023-08-08T09:51:26;10.15;;;9.25;;
16662;SDS011;8445;51.270;9.434;2023-08-08T09:54:40;10.40;;;9.35;;
16662;SDS011;8445;51.270;9.434;2023-08-08T09:57:10;9.75;;;8.88;;
16662;SDS011;8445;51.270;9.434;2023-08-08T10:00:40;9.30;;;8.65;;
16662;SDS011;8445;51.270;9.434;2023-08-08T10:03:26;12.93;;;11.93;;
16662;SDS011;8445;51.270;9.434;2023-08-08T10:06:10;13.82;;;12.73;;
16662;SDS011;8445;51.270;9.434;2023-08-08T10:08:53;12.35;;;11.55;;
16662;SDS011;8445;51.270;9.434;2023-08-08T10:11:30;13.13;;;12.23;;
16662;SDS011;8445;51.270;9.434;2023-08-08T10:14:05;11.35;;;10.30;;
16662;SDS011;8445;51.270;9.434;2023-08-08T10:16:53;11.00;;;10.20;;
16662;SDS011;8445;51.270;9.434;2023-08-08T10:19:38;10.90;;;9.93;;
16662;SDS011;8445;51.270;9.434;2023-08-08T10:22:42;10.63;;;9.68;;
16662;SDS011;8445;51.270;9.434;2023-08-08T10:26:16;10.50;;;9.52;;
16662;SDS011;8445;51.270;9.434;2023-08-08T10:30:08;10.43;;;9.63;;
16662;SDS011;8445;51.270;9.434;2023-08-08T10:32:56;10.07;;;9.25;;
16662;SDS011;8445;51.270;9.434;2023-08-08T10:36:16;14.20;;;9.73;;
16662;SDS011;8445;51.270;9.434;2023-08-08T10:39:54;10.65;;;9.88;;
16662;SDS011;8445;51.270;9.434;2023-08-08T10:42:58;10.30;;;9.50;;
16662;SDS011;8445;51.270;9.434;2023-08-08T10:46:04;10.60;;;9.70;;
16662;SDS011;8445;51.270;9.434;2023-08-08T10:49:18;11.32;;;10.43;;
16662;SDS011;8445;51.270;9.434;2023-08-08T10:52:21;10.00;;;9.20;;
16662;SDS011;8445;51.270;9.434;2023-08-08T10:55:17;9.13;;;8.43;;
16662;SDS011;8445;51.270;9.434;2023-08-08T10:58:51;11.25;;;10.50;;
16662;SDS011;8445;51.270;9.434;2023-08-08T11:02:00;10.07;;;9.07;;
16662;SDS011;8445;51.270;9.434;2023-08-08T11:08:22;9.70;;;8.00;;
16662;SDS011;8445;51.270;9.434;2023-08-08T11:11:42;10.93;;;9.45;;
16662;SDS011;8445;51.270;9.434;2023-08-08T11:14:22;8.82;;;7.97;;
16662;SDS011;8445;51.270;9.434;2023-08-08T11:17:47;8.23;;;7.63;;
16662;SDS011;8445;51.270;9.434;2023-08-08T11:20:39;8.93;;;8.07;;
16662;SDS011;8445;51.270;9.434;2023-08-08T11:23:25;9.40;;;8.27;;
16662;SDS011;8445;51.270;9.434;2023-08-08T11:26:37;10.80;;;9.90;;
16662;SDS011;8445;51.270;9.434;2023-08-08T11:32:21;11.40;;;9.95;;
16662;SDS011;8445;51.270;9.434;2023-08-08T11:35:31;10.30;;;9.50;;
16662;SDS011;8445;51.270;9.434;2023-08-08T11:38:30;10.80;;;9.73;;
16662;SDS011;8445;51.270;9.434;2023-08-08T11:41:34;9.32;;;8.43;;
16662;SDS011;8445;51.270;9.434;2023-08-08T11:44:39;8.25;;;7.70;;
16662;SDS011;8445;51.270;9.434;2023-08-08T11:47:27;8.20;;;7.45;;
16662;SDS011;8445;51.270;9.434;2023-08-08T11:50:21;8.02;;;7.03;;
16662;SDS011;8445;51.270;9.434;2023-08-08T11:52:57;6.93;;;6.43;;
16662;SDS011;8445;51.270;9.434;2023-08-08T11:55:32;7.45;;;6.70;;
16662;SDS011;8445;51.270;9.434;2023-08-08T11:58:13;7.00;;;6.50;;
16662;SDS011;8445;51.270;9.434;2023-08-08T12:00:46;7.38;;;6.65;;
16662;SDS011;8445;51.270;9.434;2023-08-08T12:03:27;7.25;;;6.55;;
16662;SDS011;8445;51.270;9.434;2023-08-08T12:05:55;7.68;;;7.07;;
16662;SDS011;8445;51.270;9.434;2023-08-08T12:08:21;7.38;;;6.80;;
16662;SDS011;8445;51.270;9.434;2023-08-08T12:10:52;6.93;;;6.30;;
16662;SDS011;8445;51.270;9.434;2023-08-08T12:13:30;7.30;;;6.70;;
16662;SDS011;8445;51.270;9.434;2023-08-08T12:16:11;7.45;;;6.70;;
16662;SDS011;8445;51.270;9.434;2023-08-08T12:18:40;6.90;;;6.40;;
16662;SDS011;8445;51.270;9.434;2023-08-08T12:21:40;6.30;;;5.95;;
16662;SDS011;8445;51.270;9.434;2023-08-08T12:24:11;7.15;;;6.65;;
16662;SDS011;8445;51.270;9.434;2023-08-08T12:26:53;7.43;;;6.82;;
16662;SDS011;8445;51.270;9.434;2023-08-08T12:32:43;8.60;;;7.90;;
16662;SDS011;8445;51.270;9.434;2023-08-08T12:35:53;9.05;;;8.45;;
16662;SDS011;8445;51.270;9.434;2023-08-08T12:38:46;7.85;;;7.30;;
16662;SDS011;8445;51.270;9.434;2023-08-08T12:42:08;7.93;;;7.20;;
16662;SDS011;8445;51.270;9.434;2023-08-08T12:45:26;7.93;;;7.43;;
16662;SDS011;8445;51.270;9.434;2023-08-08T12:52:32;8.38;;;7.78;;
16662;SDS011;8445;51.270;9.434;2023-08-08T12:55:58;7.47;;;7.07;;
16662;SDS011;8445;51.270;9.434;2023-08-08T12:59:03;7.30;;;6.80;;
16662;SDS011;8445;51.270;9.434;2023-08-08T13:02:02;7.57;;;6.88;;
16662;SDS011;8445;51.270;9.434;2023-08-08T13:05:29;7.50;;;6.80;;
16662;SDS011;8445;51.270;9.434;2023-08-08T13:11:28;6.68;;;6.28;;
16662;SDS011;8445;51.270;9.434;2023-08-08T13:21:52;7.30;;;6.40;;
16662;SDS011;8445;51.270;9.434;2023-08-08T13:24:36;7.00;;;6.50;;
16662;SDS011;8445;51.270;9.434;2023-08-08T13:27:11;8.48;;;7.97;;
16662;SDS011;8445;51.270;9.434;2023-08-08T13:30:04;8.57;;;7.93;;
16662;SDS011;8445;51.270;9.434;2023-08-08T13:33:12;6.10;;;5.68;;
16662;SDS011;8445;51.270;9.434;2023-08-08T13:36:12;7.35;;;6.20;;
16662;SDS011;8445;51.270;9.434;2023-08-08T13:39:43;6.80;;;6.20;;
16662;SDS011;8445;51.270;9.434;2023-08-08T13:42:13;6.85;;;6.43;;
16662;SDS011;8445;51.270;9.434;2023-08-08T13:45:06;6.68;;;6.18;;
16662;SDS011;8445;51.270;9.434;2023-08-08T13:47:40;6.95;;;6.25;;
16662;SDS011;8445;51.270;9.434;2023-08-08T13:50:08;6.53;;;6.03;;
16662;SDS011;8445;51.270;9.434;2023-08-08T13:52:45;7.50;;;7.00;;
16662;SDS011;8445;51.270;9.434;2023-08-08T13:55:18;7.30;;;6.70;;
16662;SDS011;8445;51.270;9.434;2023-08-08T13:57:51;9.20;;;8.48;;
16662;SDS011;8445;51.270;9.434;2023-08-08T14:00:33;7.57;;;6.97;;
16662;SDS011;8445;51.270;9.434;2023-08-08T14:03:06;9.07;;;8.52;;
16662;SDS011;8445;51.270;9.434;2023-08-08T14:05:37;8.40;;;7.90;;
16662;SDS011;8445;51.270;9.434;2023-08-08T14:08:19;8.98;;;8.25;;
16662;SDS011;8445;51.270;9.434;2023-08-08T14:11:07;7.10;;;6.60;;
16662;SDS011;8445;51.270;9.434;2023-08-08T14:14:01;7.65;;;7.00;;
16662;SDS011;8445;51.270;9.434;2023-08-08T14:17:06;7.55;;;6.93;;
16662;SDS011;8445;51.270;9.434;2023-08-08T14:19:36;6.90;;;6.40;;
16662;SDS011;8445;51.270;9.434;2023-08-08T14:22:03;8.20;;;7.50;;
16662;SDS011;8445;51.270;9.434;2023-08-08T14:25:00;8.05;;;7.50;;
16662;SDS011;8445;51.270;9.434;2023-08-08T14:28:12;7.18;;;6.50;;
16662;SDS011;8445;51.270;9.434;2023-08-08T14:31:09;7.25;;;6.75;;
16662;SDS011;8445;51.270;9.434;2023-08-08T14:33:50;6.50;;;6.10;;
16662;SDS011;8445;51.270;9.434;2023-08-08T14:37:05;7.38;;;6.20;;
16662;SDS011;8445;51.270;9.434;2023-08-08T14:39:56;7.28;;;6.78;;
16662;SDS011;8445;51.270;9.434;2023-08-08T14:42:42;7.53;;;6.38;;
16662;SDS011;8445;51.270;9.434;2023-08-08T14:45:48;6.03;;;5.50;;
16662;SDS011;8445;51.270;9.434;2023-08-08T14:48:16;6.60;;;6.03;;
16662;SDS011;8445;51.270;9.434;2023-08-08T14:50:43;7.15;;;6.50;;
16662;SDS011;8445;51.270;9.434;2023-08-08T14:53:13;8.68;;;6.50;;
16662;SDS011;8445;51.270;9.434;2023-08-08T14:55:58;6.22;;;5.80;;
16662;SDS011;8445;51.270;9.434;2023-08-08T14:58:49;9.15;;;6.20;;
16662;SDS011;8445;51.270;9.434;2023-08-08T15:01:24;6.72;;;5.97;;
16662;SDS011;8445;51.270;9.434;2023-08-08T15:03:57;6.25;;;5.75;;
16662;SDS011;8445;51.270;9.434;2023-08-08T15:06:24;7.40;;;6.60;;
16662;SDS011;8445;51.270;9.434;2023-08-08T15:09:09;7.03;;;6.32;;
16662;SDS011;8445;51.270;9.434;2023-08-08T15:11:48;8.95;;;6.72;;
16662;SDS011;8445;51.270;9.434;2023-08-08T15:14:30;8.82;;;6.57;;
16662;SDS011;8445;51.270;9.434;2023-08-08T15:17:00;7.20;;;6.60;;
16662;SDS011;8445;51.270;9.434;2023-08-08T15:19:37;8.43;;;7.10;;
16662;SDS011;8445;51.270;9.434;2023-08-08T15:22:27;7.82;;;7.05;;
16662;SDS011;8445;51.270;9.434;2023-08-08T15:25:01;6.90;;;6.40;;
16662;SDS011;8445;51.270;9.434;2023-08-08T15:27:39;7.90;;;7.10;;
16662;SDS011;8445;51.270;9.434;2023-08-08T15:30:22;7.47;;;6.97;;
16662;SDS011;8445;51.270;9.434;2023-08-08T15:33:12;7.03;;;6.50;;
16662;SDS011;8445;51.270;9.434;2023-08-08T15:36:03;7.18;;;6.55;;
16662;SDS011;8445;51.270;9.434;2023-08-08T15:38:59;6.78;;;6.28;;
16662;SDS011;8445;51.270;9.434;2023-08-08T15:41:40;7.20;;;6.60;;
16662;SDS011;8445;51.270;9.434;2023-08-08T15:44:55;6.97;;;6.47;;
16662;SDS011;8445;51.270;9.434;2023-08-08T15:47:38;7.65;;;6.50;;
16662;SDS011;8445;51.270;9.434;2023-08-08T15:50:31;7.90;;;7.30;;
16662;SDS011;8445;51.270;9.434;2023-08-08T15:53:02;7.30;;;6.70;;
16662;SDS011;8445;51.270;9.434;2023-08-08T15:55:45;8.00;;;7.30;;
16662;SDS011;8445;51.270;9.434;2023-08-08T15:58:38;7.97;;;7.38;;
16662;SDS011;8445;51.270;9.434;2023-08-08T16:01:11;8.77;;;8.02;;
16662;SDS011;8445;51.270;9.434;2023-08-08T16:04:09;8.30;;;7.68;;
16662;SDS011;8445;51.270;9.434;2023-08-08T16:06:45;8.18;;;7.47;;
16662;SDS011;8445;51.270;9.434;2023-08-08T16:09:30;8.25;;;7.65;;
16662;SDS011;8445;51.270;9.434;2023-08-08T16:12:24;8.13;;;7.40;;
16662;SDS011;8445;51.270;9.434;2023-08-08T16:14:58;7.43;;;6.93;;
16662;SDS011;8445;51.270;9.434;2023-08-08T16:17:55;7.72;;;6.97;;
16662;SDS011;8445;51.270;9.434;2023-08-08T16:20:41;7.60;;;6.93;;
16662;SDS011;8445;51.270;9.434;2023-08-08T16:23:17;8.15;;;7.47;;
16662;SDS011;8445;51.270;9.434;2023-08-08T16:26:18;8.65;;;7.93;;
16662;SDS011;8445;51.270;9.434;2023-08-08T16:28:55;8.10;;;7.60;;
16662;SDS011;8445;51.270;9.434;2023-08-08T16:31:51;7.25;;;6.70;;
16662;SDS011;8445;51.270;9.434;2023-08-08T16:34:44;7.90;;;7.40;;
16662;SDS011;8445;51.270;9.434;2023-08-08T16:37:23;8.75;;;8.07;;
16662;SDS011;8445;51.270;9.434;2023-08-08T16:40:08;7.97;;;7.35;;
16662;SDS011;8445;51.270;9.434;2023-08-08T16:43:01;7.53;;;7.05;;
16662;SDS011;8445;51.270;9.434;2023-08-08T16:45:41;7.63;;;7.13;;
16662;SDS011;8445;51.270;9.434;2023-08-08T16:48:16;8.23;;;7.50;;
16662;SDS011;8445;51.270;9.434;2023-08-08T16:51:09;8.13;;;7.43;;
16662;SDS011;8445;51.270;9.434;2023-08-08T16:54:05;8.15;;;7.40;;
16662;SDS011;8445;51.270;9.434;2023-08-08T16:57:25;7.30;;;6.85;;
16662;SDS011;8445;51.270;9.434;2023-08-08T17:00:26;7.95;;;7.40;;
16662;SDS011;8445;51.270;9.434;2023-08-08T17:03:16;7.15;;;6.70;;
16662;SDS011;8445;51.270;9.434;2023-08-08T17:06:08;7.25;;;6.60;;
16662;SDS011;8445;51.270;9.434;2023-08-08T17:09:13;7.50;;;6.90;;
16662;SDS011;8445;51.270;9.434;2023-08-08T17:11:57;8.02;;;7.07;;
16662;SDS011;8445;51.270;9.434;2023-08-08T17:15:01;7.53;;;6.82;;
16662;SDS011;8445;51.270;9.434;2023-08-08T17:17:56;8.52;;;7.38;;
16662;SDS011;8445;51.270;9.434;2023-08-08T17:25:14;7.93;;;7.28;;
16662;SDS011;8445;51.270;9.434;2023-08-08T17:28:12;7.68;;;6.90;;
16662;SDS011;8445;51.270;9.434;2023-08-08T17:30:39;7.55;;;6.95;;
16662;SDS011;8445;51.270;9.434;2023-08-08T17:37:33;7.40;;;6.70;;
16662;SDS011;8445;51.270;9.434;2023-08-08T17:40:38;7.88;;;7.07;;
16662;SDS011;8445;51.270;9.434;2023-08-08T17:46:42;8.23;;;7.43;;
16662;SDS011;8445;51.270;9.434;2023-08-08T17:49:37;8.35;;;7.45;;
16662;SDS011;8445;51.270;9.434;2023-08-08T17:52:07;7.82;;;7.15;;
16662;SDS011;8445;51.270;9.434;2023-08-08T17:54:33;8.18;;;7.60;;
16662;SDS011;8445;51.270;9.434;2023-08-08T17:57:13;8.35;;;7.60;;
16662;SDS011;8445;51.270;9.434;2023-08-08T17:59:42;8.13;;;7.53;;